Time;durP1;ratioP1;P1;durP2;ratioP2;P2;SDS_P1;SDS_P2;PMS_P1;PMS_P2;Temp;Humidity;BMP_temperature;BMP_pressure;BME280_temperature;BME280_humidity;BME280_pressure;Samples;Min_cycle;Max_cycle;Signal;HPM_P1;HPM_P2
2023/08/22 00:00:31;;;;;;;;;;;22.30;99.90;;;;;;4992193;28;20069;-78
2023/08/22 00:02:57;;;;;;;5.70;2.28;;;22.20;99.90;;;;;;4990201;28;19987;-79
2023/08/22 00:05:23;;;;;;;4.07;2.35;;;22.10;99.90;;;;;;4989778;28;20109;-79
2023/08/22 00:07:49;;;;;;;4.05;2.83;;;22.10;99.90;;;;;;4989625;28;20507;-79
2023/08/22 00:10:15;;;;;;;5.15;2.10;;;22.10;99.90;;;;;;4990235;28;20061;-79
2023/08/22 00:12:42;;;;;;;3.50;1.83;;;22.10;99.90;;;;;;4990364;28;20210;-79
2023/08/22 00:15:11;;;;;;;1.88;1.77;;;22.10;99.90;;;;;;4974198;28;20292;-79
2023/08/22 00:17:37;;;;;;;2.72;2.55;;;22.10;99.90;;;;;;4990521;28;20030;-79
2023/08/22 00:20:08;;;;;;;3.95;2.35;;;22.10;99.90;;;;;;4988976;28;20038;-80
2023/08/22 00:22:35;;;;;;;2.72;2.40;;;22.10;99.90;;;;;;4989807;28;20053;-78
2023/08/22 00:25:01;;;;;;;9.50;2.67;;;21.90;99.90;;;;;;4989692;28;20018;-79
2023/08/22 00:27:27;;;;;;;3.95;2.05;;;21.70;99.90;;;;;;4989699;28;20420;-80
2023/08/22 00:29:53;;;;;;;3.75;2.55;;;21.60;99.90;;;;;;4989832;28;20022;-80
2023/08/22 00:32:19;;;;;;;2.67;1.80;;;21.50;99.90;;;;;;4988020;28;20030;-79
2023/08/22 00:34:44;;;;;;;3.53;2.10;;;21.50;99.90;;;;;;4972945;28;20019;-78
2023/08/22 00:37:10;;;;;;;6.95;3.05;;;21.50;99.90;;;;;;4990087;28;20041;-79
2023/08/22 00:39:35;;;;;;;2.83;2.55;;;21.50;99.90;;;;;;4991277;28;20054;-79
2023/08/22 00:42:01;;;;;;;5.82;2.83;;;21.30;99.90;;;;;;4990763;28;20038;-79
2023/08/22 00:44:27;;;;;;;3.97;2.20;;;21.70;99.90;;;;;;4991296;28;20101;-79
2023/08/22 00:46:53;;;;;;;2.55;1.88;;;21.70;99.90;;;;;;4990772;28;20157;-78
2023/08/22 00:49:19;;;;;;;3.60;2.63;;;21.70;99.90;;;;;;4990911;28;20026;-79
2023/08/22 00:51:45;;;;;;;2.20;2.00;;;21.70;99.90;;;;;;4990970;28;20030;-79
2023/08/22 00:54:10;;;;;;;4.22;2.33;;;21.70;99.90;;;;;;4991045;28;20030;-78
2023/08/22 00:56:37;;;;;;;3.03;2.05;;;21.60;99.90;;;;;;4991289;28;20038;-77
2023/08/22 00:59:03;;;;;;;4.30;2.47;;;21.60;99.90;;;;;;4991121;28;20426;-80
2023/08/22 01:01:30;;;;;;;3.10;2.05;;;21.50;99.90;;;;;;4973031;28;20081;-80
2023/08/22 01:03:56;;;;;;;3.58;2.33;;;21.50;99.90;;;;;;4990765;28;20198;-79
2023/08/22 01:06:31;;;;;;;2.78;2.47;;;21.40;99.90;;;;;;4990734;28;20198;-79
2023/08/22 01:09:08;;;;;;;6.63;2.53;;;21.50;99.90;;;;;;4991004;28;20101;-79
2023/08/22 01:11:39;;;;;;;2.95;2.03;;;21.50;99.90;;;;;;4990681;28;20934;-79
2023/08/22 01:14:09;;;;;;;4.30;2.25;;;21.50;99.90;;;;;;4989564;28;20379;-79
2023/08/22 01:16:36;;;;;;;2.90;2.63;;;21.40;99.90;;;;;;4990112;28;20030;-79
2023/08/22 01:19:04;;;;;;;5.03;2.33;;;21.40;99.90;;;;;;4990696;28;20037;-79
2023/08/22 01:21:34;;;;;;;6.13;2.40;;;21.30;99.90;;;;;;4973376;28;20019;-79
2023/08/22 01:24:03;;;;;;;7.47;2.95;;;21.20;99.90;;;;;;4990402;28;20483;-79
2023/08/22 01:26:29;;;;;;;6.47;1.63;;;21.20;99.90;;;;;;4990353;28;20030;-80
2023/08/22 01:29:08;;;;;;;3.08;2.00;;;21.20;99.90;;;;;;4990102;28;20114;-79
2023/08/22 01:31:43;;;;;;;4.47;2.55;;;21.10;99.90;;;;;;4990069;28;20015;-79
2023/08/22 01:34:15;;;;;;;6.63;2.42;;;21.10;99.90;;;;;;4990418;28;20274;-80
2023/08/22 01:36:44;;;;;;;2.35;2.15;;;20.90;99.90;;;;;;4990164;28;20139;-79
2023/08/22 01:39:10;;;;;;;3.63;1.73;;;21.00;99.90;;;;;;4990509;28;20088;-79
2023/08/22 01:41:37;;;;;;;4.43;2.15;;;20.90;99.90;;;;;;4990181;28;20085;-79
2023/08/22 01:44:03;;;;;;;2.92;2.25;;;21.00;99.90;;;;;;4989900;28;20034;-79
2023/08/22 01:46:30;;;;;;;2.67;2.47;;;21.00;99.90;;;;;;4989440;28;20033;-78
2023/08/22 01:48:55;;;;;;;2.05;1.80;;;21.00;99.90;;;;;;4972564;28;20314;-78
2023/08/22 01:51:21;;;;;;;3.45;1.95;;;21.00;99.90;;;;;;4990131;28;20082;-79
2023/08/22 01:53:47;;;;;;;6.80;2.75;;;21.00;99.90;;;;;;4989897;28;20026;-79
2023/08/22 01:56:12;;;;;;;2.45;1.90;;;20.90;99.90;;;;;;4990064;28;20506;-79
2023/08/22 01:58:38;;;;;;;2.20;2.00;;;20.80;99.90;;;;;;4990013;28;20484;-79
2023/08/22 02:01:11;;;;;;;2.35;2.17;;;20.80;99.90;;;;;;4989795;28;20054;-79
2023/08/22 02:03:38;;;;;;;4.57;1.70;;;20.70;99.90;;;;;;4989391;28;20023;-78
2023/08/22 02:06:04;;;;;;;4.50;2.33;;;20.60;99.90;;;;;;4989630;28;20030;-79
2023/08/22 02:08:30;;;;;;;2.67;2.08;;;20.50;99.90;;;;;;4989621;28;20030;-79
2023/08/22 02:10:57;;;;;;;2.83;2.40;;;20.50;99.90;;;;;;4972377;28;20050;-79
2023/08/22 02:13:22;;;;;;;4.50;2.53;;;20.50;99.90;;;;;;4988674;28;20072;-79
2023/08/22 02:15:48;;;;;;;2.97;2.67;;;20.50;99.90;;;;;;4989817;28;20035;-78
2023/08/22 02:18:14;;;;;;;2.83;2.58;;;20.50;99.90;;;;;;4987643;28;20302;-79
2023/08/22 02:20:39;;;;;;;4.10;2.55;;;20.50;99.90;;;;;;4987958;28;20643;-79
2023/08/22 02:23:05;;;;;;;5.78;2.42;;;20.50;99.90;;;;;;4988505;28;20072;-79
2023/08/22 02:25:33;;;;;;;2.45;2.25;;;20.50;99.90;;;;;;4987859;28;20049;-79
2023/08/22 02:27:59;;;;;;;1.92;1.83;;;20.40;99.90;;;;;;4988055;28;20426;-79
2023/08/22 02:30:25;;;;;;;2.45;2.25;;;20.40;99.90;;;;;;4988410;28;20023;-80
2023/08/22 02:32:51;;;;;;;5.18;2.67;;;20.40;99.90;;;;;;4988469;28;20088;-80
2023/08/22 02:35:17;;;;;;;2.75;2.17;;;20.40;99.90;;;;;;4987253;28;20029;-80
2023/08/22 02:37:42;;;;;;;5.22;2.65;;;20.30;99.90;;;;;;4989477;28;20034;-79
2023/08/22 02:40:11;;;;;;;2.60;2.40;;;20.20;99.90;;;;;;4988371;28;20027;-80
2023/08/22 02:42:37;;;;;;;5.97;2.35;;;20.30;99.90;;;;;;4992048;28;20495;-79
2023/08/22 02:45:04;;;;;;;2.47;2.28;;;20.30;99.90;;;;;;4975434;28;20061;-80
2023/08/22 02:47:31;;;;;;;4.57;2.58;;;20.40;99.90;;;;;;4975279;28;20023;-79
2023/08/22 02:49:59;;;;;;;2.55;2.33;;;20.40;99.90;;;;;;4993265;28;20499;-79
2023/08/22 02:52:25;;;;;;;2.83;2.63;;;20.40;99.90;;;;;;4992737;28;20042;-79
2023/08/22 02:54:51;;;;;;;2.80;2.05;;;20.50;99.90;;;;;;4991534;28;20034;-79
2023/08/22 02:57:17;;;;;;;5.10;2.30;;;20.40;99.90;;;;;;4993192;28;20049;-80
2023/08/22 02:59:43;;;;;;;2.70;2.47;;;20.40;99.90;;;;;;4992894;28;20105;-79
2023/08/22 03:02:09;;;;;;;4.10;2.83;;;20.40;99.90;;;;;;4992787;28;20117;-80
2023/08/22 03:04:37;;;;;;;2.45;2.25;;;20.40;99.90;;;;;;4993348;28;20030;-80
2023/08/22 03:07:04;;;;;;;2.50;1.95;;;20.50;99.90;;;;;;4993218;28;20027;-79
2023/08/22 03:09:30;;;;;;;2.95;2.28;;;20.40;99.90;;;;;;4993589;28;20026;-80
2023/08/22 03:11:56;;;;;;;3.90;2.75;;;20.50;99.90;;;;;;4975374;28;20521;-78
2023/08/22 03:14:21;;;;;;;2.67;2.45;;;20.40;99.90;;;;;;4991993;28;20030;-79
2023/08/22 03:16:47;;;;;;;5.90;2.53;;;20.40;99.90;;;;;;4992520;28;20030;-79
2023/08/22 03:19:13;;;;;;;3.50;1.90;;;20.30;99.90;;;;;;4993041;28;20429;-79
2023/08/22 03:21:39;;;;;;;2.72;2.53;;;20.30;99.90;;;;;;4993198;28;20022;-80
2023/08/22 03:24:04;;;;;;;3.53;2.33;;;20.30;99.90;;;;;;4992338;28;20033;-79
2023/08/22 03:26:30;;;;;;;2.30;2.10;;;20.20;99.90;;;;;;4991158;28;20045;-78
2023/08/22 03:28:56;;;;;;;2.55;2.35;;;20.20;99.90;;;;;;4992638;28;20463;-80
2023/08/22 03:31:28;;;;;;;3.28;2.65;;;20.20;99.90;;;;;;4992415;28;20027;-79
2023/08/22 03:33:53;;;;;;;3.88;2.05;;;20.20;99.90;;;;;;4991070;28;20113;-79
2023/08/22 03:36:20;;;;;;;3.15;2.05;;;20.10;99.90;;;;;;4992685;28;20105;-80
2023/08/22 03:38:48;;;;;;;2.25;2.05;;;20.10;99.90;;;;;;4992399;28;20022;-78
2023/08/22 03:41:13;;;;;;;2.38;2.10;;;20.00;99.90;;;;;;4992487;28;20073;-79
2023/08/22 03:43:39;;;;;;;4.07;1.88;;;20.00;99.90;;;;;;4992485;28;20022;-79
2023/08/22 03:46:04;;;;;;;2.15;1.95;;;19.90;99.90;;;;;;4990561;28;20057;-79
2023/08/22 03:48:30;;;;;;;3.42;2.20;;;19.90;99.90;;;;;;4991505;28;20174;-79
2023/08/22 03:50:56;;;;;;;2.25;2.00;;;19.90;99.90;;;;;;4992331;28;20026;-78
2023/08/22 03:53:22;;;;;;;5.85;2.70;;;19.90;99.90;;;;;;4991058;28;20018;-79
2023/08/22 03:55:47;;;;;;;2.88;2.42;;;19.80;99.90;;;;;;4974128;28;20109;-80
2023/08/22 03:58:13;;;;;;;2.53;2.25;;;19.80;99.90;;;;;;4991941;28;20030;-79
2023/08/22 04:00:39;;;;;;;3.45;2.40;;;19.90;99.90;;;;;;4991650;28;20179;-79
2023/08/22 04:03:04;;;;;;;2.15;1.95;;;19.90;99.90;;;;;;4991526;28;20030;-79
2023/08/22 04:05:31;;;;;;;3.47;2.63;;;20.00;99.90;;;;;;4991747;28;20023;-78
2023/08/22 04:07:57;;;;;;;4.88;1.92;;;20.00;99.90;;;;;;4990706;28;20041;-77
2023/08/22 04:10:23;;;;;;;3.28;1.80;;;20.00;99.90;;;;;;4991763;28;20026;-80
2023/08/22 04:12:48;;;;;;;3.25;2.67;;;19.90;99.90;;;;;;4991553;28;20077;-78
2023/08/22 04:15:15;;;;;;;3.50;2.13;;;19.90;99.90;;;;;;4991781;28;20018;-80
2023/08/22 04:17:41;;;;;;;3.90;2.72;;;19.80;99.90;;;;;;4973559;28;20105;-78
2023/08/22 04:20:10;;;;;;;5.63;2.28;;;19.70;99.90;;;;;;4990787;28;20029;-79
2023/08/22 04:22:36;;;;;;;4.30;2.20;;;19.70;99.90;;;;;;4990843;28;20071;-79
2023/08/22 04:25:04;;;;;;;4.35;2.30;;;19.60;99.90;;;;;;4990919;28;20027;-79
2023/08/22 04:27:30;;;;;;;3.25;2.42;;;19.50;99.90;;;;;;4990878;28;20022;-77
2023/08/22 04:29:55;;;;;;;5.90;2.30;;;19.50;99.90;;;;;;4990809;28;20375;-79
2023/08/22 04:32:21;;;;;;;5.80;2.80;;;19.60;99.90;;;;;;4990975;28;20415;-79
2023/08/22 04:34:46;;;;;;;4.85;2.70;;;19.60;99.90;;;;;;4990863;28;20501;-73
2023/08/22 04:37:12;;;;;;;9.48;3.03;;;19.50;99.90;;;;;;4990328;28;20049;-74
2023/08/22 04:39:38;;;;;;;10.65;2.72;;;19.50;99.90;;;;;;4988904;28;20360;-74
2023/08/22 04:42:03;;;;;;;17.73;4.82;;;19.60;99.90;;;;;;4990950;28;20147;-74
2023/08/22 04:44:29;;;;;;;22.92;4.30;;;19.60;99.90;;;;;;4991048;28;20029;-74
2023/08/22 04:46:55;;;;;;;5.28;3.10;;;19.60;99.90;;;;;;4990501;28;20026;-74
2023/08/22 04:49:20;;;;;;;12.50;3.22;;;19.60;99.90;;;;;;4991063;28;20050;-74
2023/08/22 04:51:46;;;;;;;19.35;3.80;;;19.60;99.90;;;;;;4990825;28;20030;-73
2023/08/22 04:54:12;;;;;;;11.82;4.47;;;19.70;99.90;;;;;;4990703;28;20030;-73
2023/08/22 04:56:37;;;;;;;13.65;4.32;;;19.60;99.90;;;;;;4990866;28;20022;-74
2023/08/22 04:59:03;;;;;;;7.63;2.33;;;19.70;99.90;;;;;;4990410;28;20074;-74
2023/08/22 05:01:29;;;;;;;7.15;3.03;;;19.60;99.90;;;;;;4989978;28;20054;-74
2023/08/22 05:03:55;;;;;;;6.90;2.58;;;19.60;99.90;;;;;;4988753;28;20073;-74
2023/08/22 05:06:20;;;;;;;4.20;2.67;;;19.60;99.90;;;;;;4989236;28;20034;-74
2023/08/22 05:08:46;;;;;;;3.55;3.10;;;19.50;99.90;;;;;;4990553;28;20109;-74
2023/08/22 05:11:12;;;;;;;3.97;3.42;;;19.50;99.90;;;;;;4990348;28;20036;-74
2023/08/22 05:13:37;;;;;;;3.42;2.63;;;19.50;99.90;;;;;;4990452;28;20174;-74
2023/08/22 05:16:03;;;;;;;5.05;2.90;;;19.60;99.90;;;;;;4990214;28;20050;-74
2023/08/22 05:18:29;;;;;;;4.60;2.58;;;19.60;99.90;;;;;;4989844;28;20117;-74
2023/08/22 05:20:54;;;;;;;2.30;2.15;;;19.70;99.90;;;;;;4990220;28;20386;-74
2023/08/22 05:23:20;;;;;;;3.63;2.60;;;19.80;99.90;;;;;;4989762;28;20487;-73
2023/08/22 05:25:45;;;;;;;1.98;1.80;;;19.80;99.90;;;;;;4988976;28;20026;-74
2023/08/22 05:28:12;;;;;;;4.15;2.45;;;19.90;99.90;;;;;;4989757;28;20399;-74
2023/08/22 05:30:38;;;;;;;3.88;2.15;;;19.90;99.90;;;;;;4989126;28;20538;-73
2023/08/22 05:33:05;;;;;;;5.13;2.40;;;19.90;99.90;;;;;;4987940;28;20030;-74
2023/08/22 05:35:31;;;;;;;2.42;2.22;;;20.00;99.90;;;;;;4988279;28;20568;-74
2023/08/22 05:37:56;;;;;;;3.15;2.38;;;20.00;99.90;;;;;;4987962;28;20080;-74
2023/08/22 05:40:22;;;;;;;3.97;3.10;;;20.10;99.90;;;;;;4988075;28;20033;-74
2023/08/22 05:42:47;;;;;;;2.85;2.20;;;20.20;99.90;;;;;;4988132;28;20105;-74
2023/08/22 05:45:13;;;;;;;2.90;2.47;;;20.30;99.90;;;;;;4988562;28;20402;-74
2023/08/22 05:47:39;;;;;;;4.63;3.00;;;20.40;99.90;;;;;;4989224;28;20026;-74
2023/08/22 05:50:05;;;;;;;3.67;2.78;;;20.50;99.90;;;;;;4989737;28;20022;-74
2023/08/22 05:52:31;;;;;;;3.28;2.20;;;20.60;99.90;;;;;;4989744;28;20023;-75
2023/08/22 05:54:57;;;;;;;2.47;2.28;;;20.70;99.90;;;;;;4989466;28;20433;-74
2023/08/22 05:57:22;;;;;;;2.70;2.35;;;20.80;99.90;;;;;;4989532;28;20046;-74
2023/08/22 05:59:51;;;;;;;2.63;2.30;;;20.90;99.90;;;;;;4989520;28;20053;-73
2023/08/22 06:02:17;;;;;;;8.18;2.65;;;20.90;99.90;;;;;;4988009;28;20030;-74
2023/08/22 06:04:45;;;;;;;3.75;2.45;;;21.00;99.90;;;;;;4989655;28;20034;-74
2023/08/22 06:07:11;;;;;;;4.10;2.58;;;21.10;99.90;;;;;;4989543;28;20054;-73
2023/08/22 06:09:36;;;;;;;3.53;1.77;;;21.30;99.90;;;;;;4989610;28;20053;-73
2023/08/22 06:12:02;;;;;;;3.28;2.33;;;21.40;99.90;;;;;;4989770;28;20546;-75
2023/08/22 06:14:29;;;;;;;2.83;2.33;;;21.50;99.90;;;;;;4989400;28;20035;-74
2023/08/22 06:16:54;;;;;;;4.90;2.60;;;21.60;99.90;;;;;;4988203;28;20041;-74
2023/08/22 06:19:20;;;;;;;6.05;2.80;;;21.70;99.90;;;;;;4989257;28;20041;-73
2023/08/22 06:21:46;;;;;;;2.42;2.13;;;21.80;99.90;;;;;;4989536;28;20479;-73
2023/08/22 06:24:11;;;;;;;3.28;2.92;;;22.00;99.90;;;;;;4989503;28;20019;-73
2023/08/22 06:26:37;;;;;;;6.97;3.00;;;22.10;99.90;;;;;;4989667;28;20089;-73
2023/08/22 06:29:03;;;;;;;6.32;3.42;;;22.20;99.90;;;;;;4989273;28;20475;-73
2023/08/22 06:31:29;;;;;;;3.10;2.70;;;22.30;99.90;;;;;;4989085;28;20561;-70
2023/08/22 06:33:55;;;;;;;6.68;3.65;;;22.40;99.90;;;;;;4989483;28;20033;-70
2023/08/22 06:36:21;;;;;;;4.25;3.25;;;22.50;99.90;;;;;;4988985;28;20030;-71
2023/08/22 06:38:46;;;;;;;7.07;3.75;;;22.70;99.90;;;;;;4989160;28;20034;-71
2023/08/22 06:41:12;;;;;;;5.40;2.83;;;22.80;99.90;;;;;;4989162;28;20518;-70
2023/08/22 06:43:37;;;;;;;6.10;4.32;;;22.90;99.90;;;;;;4989491;28;20035;-70
2023/08/22 06:46:03;;;;;;;4.82;3.65;;;23.00;99.90;;;;;;4989090;28;20101;-70
2023/08/22 06:48:29;;;;;;;4.05;3.47;;;23.20;99.90;;;;;;4989091;28;20235;-71
2023/08/22 06:50:54;;;;;;;6.50;3.08;;;23.40;99.90;;;;;;4988929;28;20121;-70
2023/08/22 06:53:20;;;;;;;6.03;4.13;;;23.50;99.90;;;;;;4989216;28;20027;-71
2023/08/22 06:55:47;;;;;;;15.43;5.65;;;23.60;99.90;;;;;;4989031;28;20424;-70
2023/08/22 06:58:13;;;;;;;11.07;5.65;;;23.90;99.90;;;;;;4983583;28;20435;-71
2023/08/22 07:00:38;;;;;;;4.78;4.00;;;24.10;99.90;;;;;;4969489;28;20562;-75
2023/08/22 07:03:07;;;;;;;3.70;3.40;;;24.20;99.90;;;;;;4969262;28;20357;-72
2023/08/22 07:05:36;;;;;;;4.85;3.65;;;24.40;99.90;;;;;;4969929;28;20102;-71
2023/08/22 07:08:02;;;;;;;4.57;2.92;;;24.30;99.90;;;;;;4951987;28;20487;-73
2023/08/22 07:10:28;;;;;;;10.70;4.13;;;24.30;99.90;;;;;;4951928;28;20041;-71
2023/08/22 07:12:54;;;;;;;7.07;3.53;;;24.40;99.90;;;;;;4952036;28;20027;-73
2023/08/22 07:15:20;;;;;;;6.38;3.42;;;24.50;99.90;;;;;;4969627;28;20023;-70
2023/08/22 07:17:46;;;;;;;13.70;4.15;;;24.50;99.90;;;;;;4967731;28;20109;-75
2023/08/22 07:20:12;;;;;;;8.15;3.80;;;24.50;99.90;;;;;;4970021;28;20102;-75
2023/08/22 07:22:38;;;;;;;5.43;3.85;;;24.50;99.90;;;;;;4952036;28;20034;-76
2023/08/22 07:25:04;;;;;;;6.13;3.45;;;24.50;99.90;;;;;;4969656;28;20499;-75
2023/08/22 07:27:29;;;;;;;5.65;3.97;;;24.50;99.90;;;;;;4971241;28;20031;-76
2023/08/22 07:29:55;;;;;;;3.42;3.13;;;24.40;99.90;;;;;;4971420;28;20191;-75
2023/08/22 07:32:21;;;;;;;7.97;4.40;;;24.50;99.90;;;;;;4972846;28;20019;-74
2023/08/22 07:34:49;;;;;;;6.20;3.70;;;24.60;99.90;;;;;;4972834;28;20038;-75
2023/08/22 07:37:16;;;;;;;3.92;3.17;;;24.70;99.90;;;;;;4972917;28;20035;-76
2023/08/22 07:39:42;;;;;;;7.50;3.00;;;24.80;99.90;;;;;;4972815;28;20034;-75
2023/08/22 07:42:08;;;;;;;7.07;4.10;;;25.40;99.90;;;;;;4972713;28;20116;-72
2023/08/22 07:44:35;;;;;;;6.68;3.13;;;26.00;99.90;;;;;;4972381;28;20058;-73
2023/08/22 07:47:02;;;;;;;4.68;3.38;;;26.20;99.90;;;;;;4954557;28;20070;-73
2023/08/22 07:49:27;;;;;;;5.20;3.60;;;26.00;99.90;;;;;;4972332;28;20135;-72
2023/08/22 07:51:53;;;;;;;8.45;3.85;;;26.00;99.90;;;;;;4972520;28;20158;-71
2023/08/22 07:54:19;;;;;;;5.78;4.13;;;25.90;99.90;;;;;;4972415;28;20058;-71
2023/08/22 07:56:47;;;;;;;5.78;3.30;;;26.00;99.90;;;;;;4972289;28;20031;-71
2023/08/22 07:59:13;;;;;;;6.15;3.83;;;26.00;99.90;;;;;;4972172;28;20041;-71
2023/08/22 08:01:39;;;;;;;7.35;3.67;;;26.00;99.90;;;;;;4971985;28;20043;-74
2023/08/22 08:04:06;;;;;;;4.60;3.45;;;26.10;99.90;;;;;;4970752;28;20442;-73
2023/08/22 08:06:35;;;;;;;3.70;3.35;;;26.10;99.90;;;;;;4976764;28;20023;-67
2023/08/22 08:09:01;;;;;;;;;;;26.10;99.90;;;;;;4991086;28;20415;-69
2023/08/22 08:11:31;;;;;;;3.47;3.17;;;26.00;99.90;;;;;;4990579;28;19906;-70
2023/08/22 08:13:57;;;;;;;4.97;3.90;;;26.00;99.90;;;;;;4990021;28;20041;-67
2023/08/22 08:16:23;;;;;;;4.70;3.08;;;25.90;99.90;;;;;;4989625;28;20030;-69
2023/08/22 08:18:50;;;;;;;11.73;3.90;;;25.90;99.90;;;;;;4989843;28;20026;-70
2023/08/22 08:21:16;;;;;;;7.22;3.40;;;26.10;99.90;;;;;;4971920;28;20375;-67
2023/08/22 08:23:44;;;;;;;6.32;4.13;;;26.90;99.90;;;;;;4988550;28;20030;-71
2023/08/22 08:26:09;;;;;;;7.03;4.03;;;27.90;99.90;;;;;;4970567;28;20294;-71
2023/08/22 08:28:35;;;;;;;4.63;3.78;;;29.00;99.90;;;;;;4970405;28;20252;-69
2023/08/22 08:31:00;;;;;;;4.75;4.15;;;29.80;99.90;;;;;;4969941;28;20085;-71
2023/08/22 08:33:26;;;;;;;4.22;3.25;;;29.80;99.90;;;;;;4970202;28;20050;-70
2023/08/22 08:35:51;;;;;;;6.60;3.40;;;30.00;98.90;;;;;;4970079;28;20409;-72
2023/08/22 08:38:17;;;;;;;5.95;3.90;;;30.40;97.50;;;;;;4969380;28;20047;-70
2023/08/22 08:40:44;;;;;;;5.60;3.15;;;30.70;96.50;;;;;;4970422;28;20026;-69
2023/08/22 08:43:10;;;;;;;6.38;4.35;;;31.00;94.50;;;;;;4968454;28;20436;-69
2023/08/22 08:45:36;;;;;;;5.22;4.07;;;31.60;92.90;;;;;;4969953;28;20034;-69
2023/08/22 08:48:03;;;;;;;4.95;4.00;;;31.60;92.10;;;;;;4969753;28;20085;-73
2023/08/22 08:50:31;;;;;;;5.18;3.60;;;31.00;92.30;;;;;;4970249;28;20027;-73
2023/08/22 08:52:58;;;;;;;5.97;3.70;;;31.00;92.20;;;;;;4969747;28;20555;-73
2023/08/22 08:55:23;;;;;;;7.10;4.18;;;31.00;92.10;;;;;;4969895;28;20114;-72
2023/08/22 08:57:52;;;;;;;3.97;3.58;;;31.10;91.80;;;;;;4970157;28;20121;-74
2023/08/22 09:00:18;;;;;;;4.55;3.97;;;31.60;91.30;;;;;;4969988;28;20488;-70
2023/08/22 09:02:44;;;;;;;5.88;3.90;;;30.80;90.70;;;;;;4968116;28;20041;-70
2023/08/22 09:05:11;;;;;;;5.30;3.67;;;30.70;91.80;;;;;;4971851;28;20439;-71
2023/08/22 09:07:37;;;;;;;7.55;4.40;;;30.50;91.90;;;;;;4984725;28;20360;-70
2023/08/22 09:10:04;;;;;;;5.55;3.65;;;30.20;91.80;;;;;;4986544;28;20023;-70
2023/08/22 09:12:36;;;;;;;5.90;3.60;;;30.40;91.50;;;;;;4986498;28;20026;-72
2023/08/22 09:15:02;;;;;;;4.88;4.22;;;30.60;91.20;;;;;;4985673;28;20286;-70
2023/08/22 09:17:29;;;;;;;4.95;3.63;;;30.80;91.20;;;;;;4987332;28;20112;-74
2023/08/22 09:19:56;;;;;;;7.75;3.42;;;30.90;90.60;;;;;;4988592;28;20022;-71
2023/08/22 09:22:30;;;;;;;5.53;3.78;;;31.20;90.10;;;;;;4989236;28;20026;-71
2023/08/22 09:24:56;;;;;;;6.53;3.45;;;30.90;90.30;;;;;;4989508;28;20056;-70
2023/08/22 09:27:25;;;;;;;4.13;3.75;;;30.50;90.40;;;;;;4988456;28;20503;-70
2023/08/22 09:29:52;;;;;;;7.63;3.88;;;30.60;90.10;;;;;;4988358;28;20032;-70
2023/08/22 09:32:21;;;;;;;4.10;3.78;;;31.10;89.10;;;;;;4986839;28;20049;-72
2023/08/22 09:34:57;;;;;;;4.45;3.78;;;31.40;88.20;;;;;;4988494;28;20211;-71
2023/08/22 09:37:33;;;;;;;5.13;3.75;;;31.50;89.80;;;;;;4986656;28;20050;-70
2023/08/22 09:40:00;;;;;;;4.68;3.67;;;31.40;88.10;;;;;;4988396;28;20019;-70
2023/08/22 09:42:29;;;;;;;5.03;3.60;;;31.40;88.00;;;;;;4990188;28;20061;-71
2023/08/22 09:44:55;;;;;;;;;;;31.50;87.60;;;;;;4990245;28;20573;-70
2023/08/22 09:47:22;;;;;;;8.68;3.72;;;31.50;86.90;;;;;;4989830;28;19906;-69
2023/08/22 09:49:50;;;;;;;3.42;3.22;;;31.90;86.10;;;;;;4989396;28;20206;-70
2023/08/22 09:52:17;;;;;;;4.40;3.65;;;31.40;87.10;;;;;;4989589;28;20038;-70
2023/08/22 09:54:43;;;;;;;4.28;3.50;;;31.60;87.00;;;;;;4989891;28;20133;-70
2023/08/22 09:57:10;;;;;;;5.97;3.60;;;31.60;86.10;;;;;;4989928;28;20040;-73
2023/08/22 09:59:38;;;;;;;9.80;3.78;;;31.40;86.50;;;;;;4989965;28;20026;-70
2023/08/22 10:02:05;;;;;;;8.68;3.80;;;31.50;86.40;;;;;;4989962;28;20575;-70
2023/08/22 10:04:32;;;;;;;7.47;3.25;;;31.10;86.60;;;;;;4989533;28;20050;-71
2023/08/22 10:06:57;;;;;;;3.70;3.17;;;31.30;86.40;;;;;;4990073;28;20030;-71
2023/08/22 10:09:23;;;;;;;3.90;3.40;;;31.90;85.20;;;;;;4989629;28;20468;-71
2023/08/22 10:11:54;;;;;;;7.18;4.05;;;32.60;84.20;;;;;;4987842;28;20026;-70
2023/08/22 10:14:28;;;;;;;7.97;3.60;;;31.90;83.30;;;;;;4989448;28;20018;-70
2023/08/22 10:16:55;;;;;;;4.50;3.42;;;32.00;83.80;;;;;;4989262;28;20097;-69
2023/08/22 10:19:23;;;;;;;4.82;3.08;;;32.10;85.20;;;;;;4989195;28;20027;-69
2023/08/22 10:21:49;;;;;;;3.92;3.13;;;32.20;83.20;;;;;;4989419;28;20053;-71
2023/08/22 10:24:31;;;;;;;3.75;3.45;;;32.00;82.90;;;;;;4989600;28;20483;-71
2023/08/22 10:27:04;;;;;;;3.50;3.03;;;32.20;82.50;;;;;;4972045;28;20111;-71
2023/08/22 10:29:38;;;;;;;3.95;3.20;;;32.60;82.80;;;;;;4989302;28;20439;-70
2023/08/22 10:32:03;;;;;;;4.18;3.78;;;32.50;81.80;;;;;;4989278;28;20018;-71
2023/08/22 10:34:49;;;;;;;4.25;3.65;;;32.40;82.20;;;;;;4988835;28;20491;-70
2023/08/22 10:37:23;;;;;;;2.70;2.50;;;32.30;84.30;;;;;;4988994;28;20026;-69
2023/08/22 10:39:49;;;;;;;3.95;3.10;;;32.00;82.40;;;;;;4971851;28;20084;-70
2023/08/22 10:42:22;;;;;;;3.28;2.88;;;32.40;81.90;;;;;;4989281;28;20063;-77
2023/08/22 10:44:49;;;;;;;7.38;2.60;;;32.80;80.00;;;;;;4989253;28;20487;-71
2023/08/22 10:47:20;;;;;;;2.78;2.58;;;32.70;81.80;;;;;;4989258;28;20037;-70
2023/08/22 10:50:09;;;;;;;2.65;2.45;;;32.70;81.50;;;;;;4988753;28;20244;-71
2023/08/22 10:52:38;;;;;;;3.60;2.85;;;32.60;81.20;;;;;;4988988;28;20018;-71
2023/08/22 10:55:08;;;;;;;3.58;2.63;;;32.90;79.70;;;;;;4989015;28;20027;-71
2023/08/22 10:57:40;;;;;;;5.40;2.72;;;33.30;80.00;;;;;;4971372;28;20518;-71
2023/08/22 11:00:21;;;;;;;3.10;2.70;;;33.80;78.40;;;;;;4971366;28;20034;-70
2023/08/22 11:02:51;;;;;;;6.03;2.75;;;34.60;77.00;;;;;;4990836;28;20030;-71
2023/08/22 11:05:17;;;;;;;4.97;3.25;;;34.90;74.10;;;;;;4992671;28;20093;-71
2023/08/22 11:07:49;;;;;;;6.15;2.95;;;34.70;74.40;;;;;;4992794;28;20038;-71
2023/08/22 11:10:19;;;;;;;3.28;2.50;;;34.10;75.30;;;;;;4992672;28;20022;-70
2023/08/22 11:12:46;;;;;;;3.17;2.83;;;34.50;73.90;;;;;;4992940;28;20088;-70
2023/08/22 11:15:13;;;;;;;6.93;2.88;;;33.90;75.40;;;;;;4992289;28;20101;-70
2023/08/22 11:17:43;;;;;;;4.88;2.35;;;34.20;73.30;;;;;;4992685;28;20034;-70
2023/08/22 11:20:13;;;;;;;3.83;2.90;;;34.20;73.30;;;;;;4992570;28;20025;-71
2023/08/22 11:22:43;;;;;;;4.10;3.70;;;34.70;70.30;;;;;;4992540;28;20509;-70
2023/08/22 11:25:10;;;;;;;8.23;3.13;;;35.30;70.70;;;;;;4992352;28;20101;-72
2023/08/22 11:27:42;;;;;;;5.88;2.88;;;35.70;70.20;;;;;;4992415;28;20044;-70
2023/08/22 11:30:09;;;;;;;2.65;2.33;;;35.20;70.70;;;;;;4992202;28;20022;-70
2023/08/22 11:32:38;;;;;;;5.60;2.65;;;35.40;70.60;;;;;;4992071;28;20100;-70
2023/08/22 11:35:07;;;;;;;4.50;2.47;;;35.40;69.30;;;;;;4992006;28;20046;-71
2023/08/22 11:37:37;;;;;;;2.83;2.38;;;35.20;69.50;;;;;;4992143;28;20132;-71
2023/08/22 11:40:04;;;;;;;4.45;2.97;;;34.80;70.70;;;;;;4991996;28;20042;-70
2023/08/22 11:42:33;;;;;;;3.25;2.50;;;35.40;69.10;;;;;;4992084;28;20022;-70
2023/08/22 11:45:04;;;;;;;3.13;2.30;;;35.40;68.80;;;;;;4992272;28;20364;-76
2023/08/22 11:47:52;;;;;;;3.42;2.28;;;35.70;69.80;;;;;;4992249;28;20026;-76
2023/08/22 11:50:24;;;;;;;2.78;2.40;;;35.60;67.10;;;;;;4990711;28;20048;-76
2023/08/22 11:52:54;;;;;;;3.28;2.47;;;35.90;67.40;;;;;;4988969;28;20042;-75
2023/08/22 11:55:26;;;;;;;3.33;2.65;;;35.60;67.20;;;;;;4991800;28;20019;-76
2023/08/22 11:57:55;;;;;;;5.00;2.25;;;35.70;67.20;;;;;;4991592;28;20511;-77
2023/08/22 12:00:21;;;;;;;7.60;2.40;;;35.60;67.10;;;;;;4990415;28;20114;-77
2023/08/22 12:02:51;;;;;;;2.00;1.90;;;35.50;66.80;;;;;;4991222;28;20022;-76
2023/08/22 12:05:31;;;;;;;2.78;2.58;;;36.10;65.30;;;;;;4991645;28;20101;-78
2023/08/22 12:08:16;;;;;;;2.25;2.03;;;35.80;65.30;;;;;;4991782;28;20029;-75
2023/08/22 12:10:50;;;;;;;3.95;1.95;;;36.30;64.30;;;;;;4991852;28;20023;-77
2023/08/22 12:13:17;;;;;;;2.45;2.25;;;36.60;63.60;;;;;;4990706;28;20034;-74
2023/08/22 12:15:44;;;;;;;2.70;2.40;;;37.40;62.40;;;;;;4991700;28;20018;-75
2023/08/22 12:18:10;;;;;;;3.67;2.35;;;38.50;61.30;;;;;;4990957;28;20089;-75
2023/08/22 12:20:39;;;;;;;2.25;2.13;;;39.50;60.30;;;;;;4991581;28;20102;-76
2023/08/22 12:23:07;;;;;;;2.30;2.10;;;39.60;58.30;;;;;;4990335;28;20447;-77
2023/08/22 12:25:37;;;;;;;3.80;2.78;;;38.80;58.40;;;;;;4991675;28;20460;-74
2023/08/22 12:28:03;;;;;;;2.55;2.35;;;38.90;58.80;;;;;;4991368;28;20498;-76
2023/08/22 12:30:33;;;;;;;2.97;2.15;;;38.90;57.40;;;;;;4991430;28;20037;-78
2023/08/22 12:33:00;;;;;;;3.95;2.33;;;38.80;57.60;;;;;;4991093;28;20487;-75
2023/08/22 12:35:26;;;;;;;2.97;1.85;;;38.60;57.80;;;;;;4991143;28;20510;-76
2023/08/22 12:37:54;;;;;;;2.22;1.92;;;38.10;57.10;;;;;;4991104;28;20104;-77
2023/08/22 12:40:19;;;;;;;2.97;2.13;;;38.50;57.80;;;;;;4991029;28;20062;-76
2023/08/22 12:42:45;;;;;;;2.80;2.10;;;39.00;56.90;;;;;;4990820;28;20415;-73
2023/08/22 12:45:11;;;;;;;2.53;1.90;;;40.30;58.10;;;;;;4991159;28;20494;-73
2023/08/22 12:47:38;;;;;;;2.30;2.10;;;40.70;55.70;;;;;;4990795;28;20494;-74